KBLI/BLI METAR and TAF weather

Enter ICAO airport designator
Station Type Date Time Source
KBLI METAR 2023/12/11 10:53 UTC NOAA

KBLI 111053Z AUTO 34004KT 7SM FEW003 OVC010 06/06 A3020 RMK AO2 SLP234 T00560056


Station Type Date Time Source
KBLI Decoded METAR 2023/12/11 10:53 UTC NOAA

BELLINGHAM INTERNATIONAL AIRPORT, WA, United States (KBLI) 48-48N 122-32W 50M
Dec 11, 2023 - 05:53 AM EST / 2023.12.11 1053 UTC
Wind: from the NNW (340 degrees) at 5 MPH (4 KT):0
Visibility: 7 mile(s):0
Sky conditions: overcast
Temperature: 42.1 F (5.6 C)
Dew Point: 42.1 F (5.6 C)
Relative Humidity: 100%
Pressure (altimeter): 30.2 in. Hg (1022 hPa)
ob: KBLI 111053Z AUTO 34004KT 7SM FEW003 OVC010 06/06 A3020 RMK AO2 SLP234 T00560056
cycle: 11

Station Type Date Time Source
KBLI TAF 2023/12/11 12:42 UTC NOAA

TAF KBLI 111140Z 1112/1212 34004KT P6SM FEW003 OVC010
FM111300 01002KT 2SM BR OVC004
FM112000 36004KT P6SM BKN010 BKN030
FM120600 34001KT 1/4SM FG OVC001

Example: see airport list